Albertson, New York
Current Conditions -  °F | °C
As of 11:51 AM on Tuesday 27 Jan 2015 (Local Time) from KJFK Reporting Station
Light Snow Light Snow  
Wind Chill: -12°   Ceiling: 2200
Heat Index: -4°   Visibility: 2mi
Dew Point: -8°   Wind: 20mph
Humidity: 75%   Direction: 350°N
Pressure: 29.68"   Gusts: 31mph
Location:  40.77°N, 73.65°W
Report Text: KJFK 271651Z 35017G27KT 2SM R04R/5500VP6000FT -SN BLSN SCT014 BKN022 OVC031 M04/M08 A2968 RMK AO2 PK WND 35028/1626 TWR VIS 2 1/2 SLP049 P0000 T10441083 $
Loading
Personal Weather Stations






























Interactive Weather Map New forecast layout! Learn more

10-Day Weather Forecast

Advertisements
Track Severe Weather on mobile